Time;durP1;ratioP1;P1;durP2;ratioP2;P2;SDS_P1;SDS_P2;PMS_P1;PMS_P2;Temp;Humidity;BMP_temperature;BMP_pressure;BME280_temperature;BME280_humidity;BME280_pressure;Samples;Min_cycle;Max_cycle;Signal;HPM_P1;HPM_P2
2021/01/14 00:00:43;;;;;;;0.00;0.00;;;14.70;63.60;;;;;;4197194;28;20049;-38
2021/01/14 00:03:06;;;;;;;0.10;0.10;;;14.70;63.70;;;;;;4197346;28;20056;-39
2021/01/14 00:05:27;;;;;;;1.35;1.25;;;14.70;63.70;;;;;;4197203;28;20079;-39
2021/01/14 00:07:49;;;;;;;0.00;0.00;;;14.70;63.70;;;;;;4197156;28;20123;-39
2021/01/14 00:10:12;;;;;;;0.00;0.00;;;14.70;63.80;;;;;;4197341;28;20056;-38
2021/01/14 00:12:33;;;;;;;0.10;0.10;;;14.60;63.80;;;;;;4197288;28;20051;-38
2021/01/14 00:14:55;;;;;;;0.77;0.70;;;14.60;64.00;;;;;;4197386;28;20052;-38
2021/01/14 00:17:16;;;;;;;0.00;0.00;;;14.60;64.10;;;;;;4196897;28;20059;-38
2021/01/14 00:19:37;;;;;;;1.75;1.65;;;14.50;64.20;;;;;;4196882;28;20048;-38
2021/01/14 00:21:58;;;;;;;0.00;0.00;;;14.50;64.30;;;;;;4195728;28;20076;-39
2021/01/14 00:24:19;;;;;;;0.00;0.00;;;14.50;64.50;;;;;;4196903;28;20062;-38
2021/01/14 00:26:41;;;;;;;0.10;0.10;;;14.50;64.50;;;;;;4196998;28;20136;-38
2021/01/14 00:29:02;;;;;;;0.00;0.00;;;14.60;64.30;;;;;;4196763;28;20140;-37
2021/01/14 00:31:28;;;;;;;0.00;0.00;;;14.90;63.40;;;;;;4197098;28;20140;-38
2021/01/14 00:33:48;;;;;;;0.00;0.00;;;15.10;62.30;;;;;;4180423;28;20423;-38
2021/01/14 00:36:09;;;;;;;0.65;0.65;;;15.40;61.50;;;;;;4180073;28;20053;-38
2021/01/14 00:38:30;;;;;;;0.08;0.08;;;15.50;60.80;;;;;;4179485;28;20510;-38
2021/01/14 00:40:50;;;;;;;0.10;0.10;;;15.60;60.60;;;;;;4180540;28;20049;-39
2021/01/14 00:43:12;;;;;;;0.00;0.00;;;15.60;60.40;;;;;;4191942;28;20495;-38
2021/01/14 00:45:34;;;;;;;0.10;0.10;;;15.60;60.40;;;;;;4196550;28;20047;-38
2021/01/14 00:47:56;;;;;;;0.10;0.10;;;15.60;60.60;;;;;;4195931;28;20056;-38
2021/01/14 00:50:17;;;;;;;0.80;0.80;;;15.50;60.80;;;;;;4196622;28;20102;-38
2021/01/14 00:52:38;;;;;;;0.80;0.80;;;15.40;60.70;;;;;;4196076;28;20412;-38
2021/01/14 00:54:59;;;;;;;0.25;0.25;;;15.40;61.10;;;;;;4196764;28;20063;-38
2021/01/14 00:57:19;;;;;;;0.10;0.10;;;15.40;61.10;;;;;;4196255;28;20082;-38
2021/01/14 00:59:40;;;;;;;0.00;0.00;;;15.50;61.00;;;;;;4196556;28;20117;-38
2021/01/14 01:02:01;;;;;;;0.00;0.00;;;15.50;60.80;;;;;;4196017;28;20098;-38
2021/01/14 01:04:23;;;;;;;0.00;0.00;;;15.50;60.80;;;;;;4195924;28;20511;-38
2021/01/14 01:06:44;;;;;;;0.00;0.00;;;15.50;60.80;;;;;;4196058;28;20059;-38
2021/01/14 01:09:07;;;;;;;0.00;0.00;;;15.60;60.40;;;;;;4196705;28;20067;-38
2021/01/14 01:11:28;;;;;;;0.43;0.43;;;15.70;60.20;;;;;;4196080;28;20056;-38
2021/01/14 01:13:49;;;;;;;0.00;0.00;;;15.70;59.90;;;;;;4180070;28;20590;-39
2021/01/14 01:16:16;;;;;;;0.00;0.00;;;15.70;59.90;;;;;;4179540;28;20134;-38
2021/01/14 01:18:37;;;;;;;0.00;0.00;;;15.70;60.00;;;;;;4179404;28;20049;-38
2021/01/14 01:20:58;;;;;;;0.50;0.50;;;15.60;60.10;;;;;;4179931;28;20110;-38
2021/01/14 01:23:19;;;;;;;0.47;0.47;;;15.60;60.10;;;;;;4192952;28;20052;-38
2021/01/14 01:25:40;;;;;;;0.00;0.00;;;15.70;59.90;;;;;;4196170;28;20150;-39
2021/01/14 01:28:01;;;;;;;0.68;0.68;;;15.90;59.40;;;;;;4195718;28;20053;-38
2021/01/14 01:30:22;;;;;;;0.00;0.00;;;16.10;58.80;;;;;;4195210;28;20105;-38
2021/01/14 01:32:43;;;;;;;0.00;0.00;;;16.20;58.30;;;;;;4195900;28;20045;-38
2021/01/14 01:35:04;;;;;;;0.37;0.37;;;16.30;58.10;;;;;;4196309;28;20052;-39
2021/01/14 01:37:25;;;;;;;;;;;16.30;58.10;;;;;;4196303;28;20330;-39
2021/01/14 01:39:46;;;;;;;0.20;0.20;;;16.20;58.20;;;;;;4194687;28;19928;-38
2021/01/14 01:42:07;;;;;;;0.00;0.00;;;16.10;58.40;;;;;;4196001;28;20063;-38
2021/01/14 01:44:28;;;;;;;0.00;0.00;;;16.00;58.60;;;;;;4195726;28;20056;-38
2021/01/14 01:46:49;;;;;;;0.00;0.00;;;15.80;58.90;;;;;;4195332;28;20537;-38
2021/01/14 01:49:10;;;;;;;0.00;0.00;;;15.70;59.20;;;;;;4195670;28;20056;-38
2021/01/14 01:51:35;;;;;;;0.00;0.00;;;15.60;59.40;;;;;;4195864;28;20135;-39
2021/01/14 01:53:57;;;;;;;0.00;0.00;;;15.60;59.60;;;;;;4195887;28;20495;-38
2021/01/14 01:56:18;;;;;;;0.00;0.00;;;15.70;59.30;;;;;;4195613;28;20107;-38
2021/01/14 01:58:40;;;;;;;;;;;15.80;59.00;;;;;;4196033;28;20059;-38
2021/01/14 02:01:01;;;;;;;0.00;0.00;;;15.90;58.70;;;;;;4196137;28;19924;-38
2021/01/14 02:03:22;;;;;;;0.00;0.00;;;15.90;58.50;;;;;;4195616;28;20063;-39
2021/01/14 02:05:43;;;;;;;0.00;0.00;;;15.90;58.50;;;;;;4178917;28;20052;-38
2021/01/14 02:08:09;;;;;;;0.10;0.10;;;15.80;58.40;;;;;;4193804;28;20067;-38
2021/01/14 02:10:33;;;;;;;0.00;0.00;;;15.80;58.60;;;;;;4195800;28;20736;-38
2021/01/14 02:13:02;;;;;;;0.00;0.00;;;15.80;58.80;;;;;;4195610;28;20067;-38
2021/01/14 02:15:26;;;;;;;0.00;0.00;;;15.90;58.60;;;;;;4195493;28;20503;-38
2021/01/14 02:17:47;;;;;;;0.00;0.00;;;16.10;58.10;;;;;;4195333;28;20139;-38
2021/01/14 02:20:13;;;;;;;0.00;0.00;;;16.20;57.90;;;;;;4195408;28;20610;-38
2021/01/14 02:22:37;;;;;;;0.00;0.00;;;16.20;57.70;;;;;;4195374;28;20056;-38
2021/01/14 02:25:07;;;;;;;0.00;0.00;;;16.20;57.70;;;;;;4195639;28;20048;-38
2021/01/14 02:27:29;;;;;;;0.00;0.00;;;16.10;57.80;;;;;;4195818;28;20080;-38
2021/01/14 02:29:51;;;;;;;0.10;0.10;;;16.00;58.10;;;;;;4195874;28;20053;-38
2021/01/14 02:32:16;;;;;;;0.00;0.00;;;15.90;58.40;;;;;;4195572;28;20075;-38
2021/01/14 02:34:37;;;;;;;0.00;0.00;;;15.90;58.60;;;;;;4195185;28;20653;-38
2021/01/14 02:36:57;;;;;;;0.00;0.00;;;15.90;58.50;;;;;;4195183;28;20613;-39
2021/01/14 02:39:18;;;;;;;0.00;0.00;;;15.90;58.40;;;;;;4195263;28;20567;-39
2021/01/14 02:41:39;;;;;;;0.00;0.00;;;15.90;58.50;;;;;;4196453;28;20145;-38
2021/01/14 02:44:01;;;;;;;0.03;0.03;;;15.80;58.50;;;;;;4198560;28;20052;-39
2021/01/14 02:46:23;;;;;;;0.00;0.00;;;15.90;58.70;;;;;;4198494;28;20831;-39
2021/01/14 02:48:45;;;;;;;0.00;0.00;;;15.90;58.40;;;;;;4198111;28;20489;-38
2021/01/14 02:51:09;;;;;;;0.00;0.00;;;16.00;58.10;;;;;;4198325;28;20056;-38
2021/01/14 02:53:32;;;;;;;0.00;0.00;;;16.10;57.90;;;;;;4181757;28;20142;-38
2021/01/14 02:55:54;;;;;;;0.38;0.38;;;16.00;57.90;;;;;;4181734;28;20057;-38
2021/01/14 02:58:14;;;;;;;0.00;0.00;;;16.00;58.00;;;;;;4182158;28;20053;-38
2021/01/14 03:00:37;;;;;;;0.00;0.00;;;15.90;58.30;;;;;;4189453;28;20480;-38
2021/01/14 03:02:57;;;;;;;0.00;0.00;;;15.80;58.50;;;;;;4198497;28;20052;-38
2021/01/14 03:05:19;;;;;;;0.00;0.00;;;15.90;58.40;;;;;;4198749;28;20045;-38
2021/01/14 03:07:39;;;;;;;0.00;0.00;;;16.10;58.00;;;;;;4198481;28;20075;-38
2021/01/14 03:10:00;;;;;;;0.00;0.00;;;16.20;57.70;;;;;;4197788;28;20122;-39
2021/01/14 03:12:21;;;;;;;0.00;0.00;;;16.20;57.70;;;;;;4197897;28;20064;-40
2021/01/14 03:14:42;;;;;;;0.00;0.00;;;16.20;57.70;;;;;;4196933;28;20075;-39
2021/01/14 03:17:04;;;;;;;0.00;0.00;;;16.10;57.90;;;;;;4197691;28;20461;-39
2021/01/14 03:19:25;;;;;;;0.00;0.00;;;16.00;58.10;;;;;;4198000;28;20057;-38
2021/01/14 03:21:46;;;;;;;0.00;0.00;;;15.90;58.40;;;;;;4198436;28;20052;-38
2021/01/14 03:24:08;;;;;;;0.00;0.00;;;15.90;58.50;;;;;;4198790;28;20131;-38
2021/01/14 03:26:28;;;;;;;0.40;0.40;;;15.90;58.40;;;;;;4196999;28;20052;-38
2021/01/14 03:28:50;;;;;;;0.20;0.20;;;16.00;58.30;;;;;;4198243;28;20066;-38
2021/01/14 03:31:12;;;;;;;0.00;0.00;;;15.90;58.30;;;;;;4198017;28;20098;-38
2021/01/14 03:33:34;;;;;;;0.00;0.00;;;15.90;59.10;;;;;;4197985;28;20049;-38
2021/01/14 03:35:55;;;;;;;0.00;0.00;;;16.00;58.40;;;;;;4197623;28;20060;-38
2021/01/14 03:38:16;;;;;;;0.05;0.05;;;16.00;58.20;;;;;;4197341;28;20044;-38
2021/01/14 03:40:37;;;;;;;0.00;0.00;;;15.90;58.30;;;;;;4197627;28;20151;-38
2021/01/14 03:42:57;;;;;;;0.00;0.00;;;15.90;58.40;;;;;;4197558;28;20063;-38
2021/01/14 03:45:18;;;;;;;0.00;0.00;;;15.90;58.50;;;;;;4197562;28;20056;-38
2021/01/14 03:47:39;;;;;;;0.00;0.00;;;15.80;58.60;;;;;;4197125;28;20056;-38
2021/01/14 03:50:01;;;;;;;0.00;0.00;;;15.80;58.80;;;;;;4181210;28;20553;-39
2021/01/14 03:52:22;;;;;;;0.00;0.00;;;15.80;58.70;;;;;;4181251;28;20576;-39
2021/01/14 03:54:45;;;;;;;0.00;0.00;;;16.00;58.20;;;;;;4181310;28;20139;-38
2021/01/14 03:57:06;;;;;;;0.00;0.00;;;16.20;57.70;;;;;;4190274;28;20056;-38
2021/01/14 03:59:27;;;;;;;0.00;0.00;;;16.30;57.40;;;;;;4197697;28;20060;-38
2021/01/14 04:01:48;;;;;;;0.00;0.00;;;16.40;57.20;;;;;;4197048;28;20128;-39
2021/01/14 04:04:09;;;;;;;0.25;0.25;;;16.50;57.00;;;;;;4197177;28;20052;-39
2021/01/14 04:06:34;;;;;;;0.00;0.00;;;16.50;56.90;;;;;;4197298;28;20063;-38
2021/01/14 04:08:55;;;;;;;0.70;0.70;;;16.50;56.90;;;;;;4197265;28;20094;-38
2021/01/14 04:11:15;;;;;;;0.00;0.00;;;16.40;57.70;;;;;;4197153;28;20136;-39
2021/01/14 04:13:37;;;;;;;0.00;0.00;;;16.30;57.10;;;;;;4197039;28;20052;-39
2021/01/14 04:15:58;;;;;;;0.00;0.00;;;16.30;57.30;;;;;;4196730;28;20052;-39
2021/01/14 04:18:19;;;;;;;0.00;0.00;;;16.20;57.30;;;;;;4197015;28;20052;-38
2021/01/14 04:20:40;;;;;;;0.20;0.20;;;16.10;57.50;;;;;;4197511;28;20048;-38
2021/01/14 04:23:01;;;;;;;0.03;0.03;;;16.00;57.80;;;;;;4180515;28;20102;-39
2021/01/14 04:25:30;;;;;;;0.00;0.00;;;15.90;58.10;;;;;;4179314;28;20056;-38
2021/01/14 04:27:52;;;;;;;0.00;0.00;;;16.00;58.10;;;;;;4196423;28;20051;-38
2021/01/14 04:30:13;;;;;;;0.00;0.00;;;16.10;57.80;;;;;;4196705;28;20052;-39
2021/01/14 04:32:35;;;;;;;0.00;0.00;;;16.20;57.40;;;;;;4196583;28;20110;-39
2021/01/14 04:34:55;;;;;;;0.00;0.00;;;16.40;57.00;;;;;;4197277;28;20053;-38
2021/01/14 04:37:16;;;;;;;0.20;0.20;;;16.40;56.80;;;;;;4196981;28;20056;-38
2021/01/14 04:39:38;;;;;;;0.00;0.00;;;16.40;56.80;;;;;;4196462;28;20044;-38
2021/01/14 04:41:59;;;;;;;0.30;0.30;;;16.30;56.90;;;;;;4196568;28;20063;-38
2021/01/14 04:44:20;;;;;;;0.35;0.35;;;16.30;57.10;;;;;;4195603;28;20076;-39
2021/01/14 04:46:48;;;;;;;0.00;0.00;;;16.30;57.10;;;;;;4196117;28;20056;-39
2021/01/14 04:49:09;;;;;;;0.00;0.00;;;16.40;56.80;;;;;;4196336;28;20060;-39
2021/01/14 04:51:32;;;;;;;0.10;0.10;;;16.60;56.50;;;;;;4196516;28;20057;-39
2021/01/14 04:53:59;;;;;;;0.30;0.30;;;16.60;56.30;;;;;;4196399;28;20053;-38
2021/01/14 04:56:24;;;;;;;0.00;0.00;;;16.50;56.30;;;;;;4196223;28;20517;-38
2021/01/14 04:58:47;;;;;;;0.00;0.00;;;16.50;57.30;;;;;;4196350;28;20049;-39
2021/01/14 05:01:16;;;;;;;0.10;0.10;;;16.40;56.70;;;;;;4196019;28;20056;-38
2021/01/14 05:03:40;;;;;;;0.45;0.25;;;16.30;56.80;;;;;;4196767;28;20044;-38
2021/01/14 05:06:03;;;;;;;0.00;0.00;;;16.20;57.10;;;;;;4195440;28;20110;-38
2021/01/14 05:08:28;;;;;;;0.00;0.00;;;16.10;57.30;;;;;;4179669;28;20059;-38
2021/01/14 05:10:51;;;;;;;0.30;0.30;;;16.00;57.60;;;;;;4179571;28;20416;-38
2021/01/14 05:13:13;;;;;;;0.00;0.00;;;16.00;57.70;;;;;;4179594;28;20458;-38
2021/01/14 05:15:35;;;;;;;1.15;0.10;;;16.10;57.60;;;;;;4179949;28;20053;-38
2021/01/14 05:17:57;;;;;;;0.05;0.05;;;16.20;57.20;;;;;;4180084;28;20052;-39
2021/01/14 05:20:18;;;;;;;0.00;0.00;;;16.30;57.00;;;;;;4179524;28;20049;-38
2021/01/14 05:22:41;;;;;;;0.35;0.35;;;16.30;57.00;;;;;;4178305;28;20139;-38
2021/01/14 05:25:06;;;;;;;0.03;0.03;;;16.20;57.00;;;;;;4179375;28;20103;-38
2021/01/14 05:27:27;;;;;;;0.00;0.00;;;16.10;57.10;;;;;;4195995;28;20079;-38
2021/01/14 05:30:01;;;;;;;0.00;0.00;;;16.10;57.40;;;;;;4196416;28;20074;-39
2021/01/14 05:32:33;;;;;;;0.00;0.00;;;16.00;57.60;;;;;;4195594;28;20056;-38
2021/01/14 05:34:53;;;;;;;0.00;0.00;;;16.20;57.40;;;;;;4195681;28;20059;-39
2021/01/14 05:37:14;;;;;;;0.20;0.20;;;16.30;57.20;;;;;;4196283;28;20418;-38
2021/01/14 05:39:42;;;;;;;0.00;0.00;;;16.40;56.80;;;;;;4195758;28;20093;-39
2021/01/14 05:42:10;;;;;;;0.25;0.25;;;16.40;56.70;;;;;;4195743;28;20052;-39
2021/01/14 05:44:38;;;;;;;0.90;0.90;;;16.30;56.70;;;;;;4194074;28;20135;-39
2021/01/14 05:47:18;;;;;;;0.00;0.00;;;16.30;56.80;;;;;;4195579;28;20052;-39
2021/01/14 05:49:39;;;;;;;0.00;0.00;;;16.30;56.90;;;;;;4195517;28;20052;-38
2021/01/14 05:52:01;;;;;;;0.00;0.00;;;16.30;56.90;;;;;;4195424;28;20056;-38
2021/01/14 05:54:34;;;;;;;1.25;1.15;;;16.10;57.00;;;;;;4195664;28;20059;-38
2021/01/14 05:56:58;;;;;;;0.00;0.00;;;16.00;57.20;;;;;;4195584;28;20052;-38
2021/01/14 05:59:20;;;;;;;0.00;0.00;;;15.90;57.50;;;;;;4195576;28;20060;-39
2021/01/14 06:01:53;;;;;;;0.08;0.08;;;15.80;57.80;;;;;;4195561;28;20477;-38
2021/01/14 06:04:17;;;;;;;0.52;0.52;;;15.70;58.10;;;;;;4196164;28;20057;-38
2021/01/14 06:06:43;;;;;;;0.00;0.00;;;15.60;58.40;;;;;;4195462;28;20091;-39
2021/01/14 06:09:07;;;;;;;0.00;0.00;;;15.60;58.40;;;;;;4195228;28;20056;-38
2021/01/14 06:11:29;;;;;;;0.10;0.10;;;15.50;58.50;;;;;;4195535;28;20400;-38
2021/01/14 06:13:50;;;;;;;0.05;0.05;;;15.50;58.60;;;;;;4195487;28;20529;-38
2021/01/14 06:16:11;;;;;;;0.00;0.00;;;15.40;58.70;;;;;;4196115;28;20060;-45
2021/01/14 06:18:32;;;;;;;0.00;0.00;;;15.50;58.70;;;;;;4199586;28;20414;-39
2021/01/14 06:20:54;;;;;;;1.90;1.75;;;15.60;58.40;;;;;;4199286;28;20262;-39
2021/01/14 06:23:17;;;;;;;0.00;0.00;;;15.70;58.10;;;;;;4199016;28;20076;-39
2021/01/14 06:25:47;;;;;;;0.17;0.17;;;15.90;57.80;;;;;;4198620;28;20053;-39
2021/01/14 06:28:08;;;;;;;0.00;0.00;;;16.10;57.30;;;;;;4182437;28;20131;-39
2021/01/14 06:30:30;;;;;;;0.00;0.00;;;16.30;56.80;;;;;;4182800;28;20539;-39
2021/01/14 06:33:01;;;;;;;0.00;0.00;;;16.40;56.40;;;;;;4197526;28;20564;-39
2021/01/14 06:35:23;;;;;;;0.00;0.00;;;16.50;56.10;;;;;;4198672;28;20084;-38
2021/01/14 06:37:49;;;;;;;0.00;0.00;;;16.60;55.80;;;;;;4198835;28;20059;-39
2021/01/14 06:40:11;;;;;;;0.32;0.32;;;16.80;55.30;;;;;;4181970;28;20772;-38
2021/01/14 06:42:35;;;;;;;0.08;0.08;;;17.10;54.80;;;;;;4182008;28;20126;-38
2021/01/14 06:44:58;;;;;;;0.00;0.00;;;17.20;54.40;;;;;;4181859;28;20080;-38
2021/01/14 06:47:31;;;;;;;0.13;0.13;;;17.10;54.40;;;;;;4197395;28;20063;-39
2021/01/14 06:50:01;;;;;;;0.68;0.68;;;17.00;54.50;;;;;;4181909;28;20530;-39
2021/01/14 06:52:26;;;;;;;0.00;0.00;;;16.90;55.00;;;;;;4181779;28;20182;-38
2021/01/14 06:54:51;;;;;;;0.00;0.00;;;16.70;55.30;;;;;;4181747;28;20123;-39
2021/01/14 06:57:16;;;;;;;0.10;0.10;;;16.60;55.70;;;;;;4196886;28;20087;-39
2021/01/14 06:59:38;;;;;;;0.00;0.00;;;16.60;55.70;;;;;;4198204;28;20067;-38
2021/01/14 07:02:23;;;;;;;0.00;0.00;;;16.60;55.60;;;;;;4197999;28;20049;-38
2021/01/14 07:04:52;;;;;;;0.08;0.08;;;16.60;55.70;;;;;;4198184;28;20056;-38
2021/01/14 07:07:45;;;;;;;0.10;0.10;;;16.60;56.20;;;;;;4198147;28;20139;-39
2021/01/14 07:10:09;;;;;;;0.00;0.00;;;16.60;56.40;;;;;;4185515;28;20078;-39
2021/01/14 07:12:33;;;;;;;3.72;1.85;;;16.60;56.80;;;;;;4198647;28;20122;-38
2021/01/14 07:15:03;;;;;;;0.15;0.15;;;16.50;57.50;;;;;;4197787;28;20092;-38
2021/01/14 07:17:31;;;;;;;1.30;0.98;;;16.50;57.60;;;;;;4181437;28;20091;-38
2021/01/14 07:19:53;;;;;;;0.10;0.10;;;16.40;57.60;;;;;;4181308;28;20049;-38
2021/01/14 07:22:16;;;;;;;0.13;0.13;;;16.20;57.60;;;;;;4181316;28;20057;-38
2021/01/14 07:24:39;;;;;;;0.00;0.00;;;16.20;58.00;;;;;;4189311;28;20053;-38
2021/01/14 07:27:02;;;;;;;0.10;0.10;;;16.00;58.20;;;;;;4189974;28;20048;-38
2021/01/14 07:29:25;;;;;;;0.00;0.00;;;15.90;58.60;;;;;;4197247;28;20503;-38
2021/01/14 07:31:48;;;;;;;0.08;0.08;;;16.00;58.70;;;;;;4194859;28;20048;-38
2021/01/14 07:34:32;;;;;;;0.20;0.20;;;16.20;58.30;;;;;;4197662;28;20052;-39
2021/01/14 07:36:58;;;;;;;0.73;0.73;;;16.50;57.70;;;;;;4194967;28;20511;-39
2021/01/14 07:39:18;;;;;;;0.00;0.00;;;16.60;57.20;;;;;;4196678;28;20055;-38
2021/01/14 07:41:55;;;;;;;0.00;0.00;;;16.70;56.90;;;;;;4189351;28;20041;-39
2021/01/14 07:44:18;;;;;;;0.00;0.00;;;16.80;56.70;;;;;;4191736;28;20060;-38
2021/01/14 07:46:41;;;;;;;0.00;0.00;;;16.90;56.40;;;;;;4190820;28;20044;-38
2021/01/14 07:49:02;;;;;;;0.20;0.20;;;16.90;56.40;;;;;;4194091;28;20550;-38
2021/01/14 07:51:46;;;;;;;0.00;0.00;;;16.80;56.60;;;;;;4191669;28;20048;-39
2021/01/14 07:54:08;;;;;;;0.00;0.00;;;16.80;56.50;;;;;;4189469;28;20053;-38
2021/01/14 07:56:32;;;;;;;0.00;0.00;;;16.80;56.60;;;;;;4192575;28;20155;-39
2021/01/14 07:58:56;;;;;;;0.10;0.10;;;16.70;56.70;;;;;;4188575;28;20053;-38
2021/01/14 08:01:17;;;;;;;0.00;0.00;;;16.60;56.80;;;;;;4192197;28;20041;-39
2021/01/14 08:03:40;;;;;;;0.15;0.15;;;16.70;56.80;;;;;;4188071;28;20049;-38
2021/01/14 08:06:21;;;;;;;0.00;0.00;;;16.60;56.80;;;;;;4192429;28;20052;-39
2021/01/14 08:08:55;;;;;;;0.00;0.00;;;16.50;57.00;;;;;;4192063;28;20053;-38
2021/01/14 08:11:19;;;;;;;0.00;0.00;;;16.50;57.30;;;;;;4191981;28;20048;-38
2021/01/14 08:13:59;;;;;;;0.00;0.00;;;16.60;57.10;;;;;;4191035;28;20048;-38
2021/01/14 08:16:30;;;;;;;0.00;0.00;;;16.70;56.80;;;;;;4196091;28;20499;-38
2021/01/14 08:19:14;;;;;;;0.20;0.20;;;16.80;56.50;;;;;;4196654;28;20056;-38
2021/01/14 08:21:39;;;;;;;0.50;0.50;;;16.80;56.40;;;;;;4192440;28;20055;-39
2021/01/14 08:24:06;;;;;;;0.00;0.00;;;16.90;56.20;;;;;;4187739;28;20071;-39
2021/01/14 08:26:27;;;;;;;0.20;0.20;;;17.10;55.80;;;;;;4179738;28;20048;-42
2021/01/14 08:29:04;;;;;;;0.00;0.00;;;17.20;55.50;;;;;;4192894;28;20079;-41
2021/01/14 08:31:36;;;;;;;0.00;0.00;;;17.20;55.40;;;;;;4188941;28;20071;-42
2021/01/14 08:34:07;;;;;;;14.80;1.67;;;17.10;55.60;;;;;;4189408;28;20559;-44
2021/01/14 08:36:31;;;;;;;0.00;0.00;;;17.10;55.80;;;;;;4192038;28;20060;-42
2021/01/14 08:38:55;;;;;;;0.20;0.20;;;17.10;55.80;;;;;;4187235;28;20291;-42
2021/01/14 08:41:27;;;;;;;0.10;0.10;;;17.00;55.90;;;;;;4187325;28;20056;-41
2021/01/14 08:43:50;;;;;;;0.00;0.00;;;16.90;56.20;;;;;;4194732;28;20102;-41
2021/01/14 08:46:11;;;;;;;0.00;0.00;;;16.70;57.20;;;;;;4194593;28;20052;-41
2021/01/14 08:48:33;;;;;;;0.00;0.00;;;16.60;56.80;;;;;;4185782;28;20049;-40
2021/01/14 08:51:04;;;;;;;0.00;0.00;;;16.40;57.20;;;;;;4191364;28;20127;-42
2021/01/14 08:53:33;;;;;;;0.00;0.00;;;16.40;57.50;;;;;;4187518;28;20430;-41
2021/01/14 08:55:56;;;;;;;0.30;0.30;;;16.40;57.70;;;;;;4194053;28;20502;-41
2021/01/14 08:58:19;;;;;;;0.20;0.20;;;16.20;57.80;;;;;;4193986;28;20053;-45
2021/01/14 09:00:46;;;;;;;0.00;0.00;;;16.20;58.00;;;;;;4191338;28;20072;-47
2021/01/14 09:03:07;;;;;;;0.00;0.00;;;16.00;58.20;;;;;;4187771;28;20513;-42
2021/01/14 09:05:29;;;;;;;0.30;0.30;;;15.90;58.50;;;;;;4193495;28;20048;-41
2021/01/14 09:08:04;;;;;;;0.15;0.15;;;15.80;58.70;;;;;;4198039;28;20071;-41
2021/01/14 09:10:25;;;;;;;0.68;0.68;;;15.70;58.80;;;;;;4188887;28;20112;-41
2021/01/14 09:12:46;;;;;;;0.00;0.00;;;15.70;58.80;;;;;;4190606;28;20048;-41
2021/01/14 09:15:08;;;;;;;;;;;15.80;58.50;;;;;;4189852;28;20059;-40
2021/01/14 09:17:30;;;;;;;0.00;0.00;;;15.90;58.40;;;;;;4189027;28;19950;-42
2021/01/14 09:19:53;;;;;;;0.00;0.00;;;15.80;58.40;;;;;;4191549;28;20049;-41
2021/01/14 09:22:24;;;;;;;0.00;0.00;;;15.80;58.70;;;;;;4189280;28;20072;-40
2021/01/14 09:24:47;;;;;;;0.52;0.28;;;15.80;59.70;;;;;;4190363;28;20052;-41
2021/01/14 09:27:08;;;;;;;0.10;0.10;;;15.70;59.00;;;;;;4198965;28;20049;-40
2021/01/14 09:29:30;;;;;;;0.00;0.00;;;15.60;59.30;;;;;;4190732;28;20090;-41
2021/01/14 09:31:51;;;;;;;0.30;0.30;;;15.50;59.60;;;;;;4189939;28;20040;-45
2021/01/14 09:34:12;;;;;;;0.10;0.10;;;15.50;59.80;;;;;;4187653;28;20063;-42
2021/01/14 09:36:34;;;;;;;0.00;0.00;;;15.50;59.80;;;;;;4191418;28;20064;-41
2021/01/14 09:38:57;;;;;;;0.05;0.05;;;15.40;59.90;;;;;;4201579;28;20574;-41
2021/01/14 09:41:24;;;;;;;0.05;0.05;;;15.40;60.20;;;;;;4190182;28;20074;-41
2021/01/14 09:43:49;;;;;;;0.17;0.17;;;15.40;60.00;;;;;;4189988;28;20397;-41
2021/01/14 09:46:11;;;;;;;0.00;0.00;;;15.50;60.00;;;;;;4192514;28;20603;-40
2021/01/14 09:48:33;;;;;;;0.00;0.00;;;15.50;59.80;;;;;;4186490;28;20113;-41
2021/01/14 09:50:56;;;;;;;0.00;0.00;;;15.50;59.60;;;;;;4186177;28;20052;-39
2021/01/14 09:53:17;;;;;;;0.10;0.10;;;15.50;59.70;;;;;;4187439;28;20124;-40
2021/01/14 09:55:40;;;;;;;0.45;0.45;;;15.50;59.80;;;;;;4188816;28;20051;-41
2021/01/14 09:58:03;;;;;;;0.17;0.17;;;15.50;59.90;;;;;;4187919;28;20041;-40
2021/01/14 10:00:28;;;;;;;0.65;0.38;;;15.50;59.80;;;;;;4190260;28;20136;-40
2021/01/14 10:02:53;;;;;;;0.52;0.52;;;15.70;59.70;;;;;;4194729;28;20040;-40
2021/01/14 10:05:16;;;;;;;0.95;0.95;;;15.90;59.30;;;;;;4190195;28;20052;-41
2021/01/14 10:07:49;;;;;;;0.15;0.15;;;15.90;59.00;;;;;;4192940;28;20047;-40
2021/01/14 10:10:10;;;;;;;0.77;0.32;;;15.90;59.00;;;;;;4188432;28;20077;-40
2021/01/14 10:12:33;;;;;;;0.00;0.00;;;15.80;58.80;;;;;;4187234;28;20048;-40
2021/01/14 10:15:07;;;;;;;0.80;0.80;;;15.90;58.80;;;;;;4186127;28;20049;-40
2021/01/14 10:17:36;;;;;;;0.08;0.08;;;15.90;58.40;;;;;;4190119;28;20064;-41
2021/01/14 10:20:01;;;;;;;1.50;1.40;;;15.80;58.50;;;;;;4189769;28;20574;-40
2021/01/14 10:22:22;;;;;;;1.00;1.00;;;15.80;58.70;;;;;;4186179;28;20102;-40
2021/01/14 10:24:43;;;;;;;0.00;0.00;;;15.70;58.70;;;;;;4188774;28;20041;-40
2021/01/14 10:27:11;;;;;;;0.00;0.00;;;15.50;59.20;;;;;;4192169;28;20076;-40
2021/01/14 10:29:38;;;;;;;0.08;0.08;;;15.50;59.20;;;;;;4186062;28;20567;-40
2021/01/14 10:32:03;;;;;;;0.10;0.10;;;15.50;59.40;;;;;;4190044;28;20052;-41
2021/01/14 10:34:40;;;;;;;0.10;0.10;;;15.60;59.60;;;;;;4186935;28;20057;-41
2021/01/14 10:37:01;;;;;;;3.83;3.53;;;15.60;59.40;;;;;;4187117;28;20540;-41
2021/01/14 10:39:37;;;;;;;0.50;0.50;;;15.50;59.20;;;;;;4186668;28;20493;-40
2021/01/14 10:42:26;;;;;;;0.00;0.00;;;15.40;59.30;;;;;;4191589;28;20049;-40
2021/01/14 10:44:53;;;;;;;0.10;0.10;;;15.30;59.30;;;;;;4187052;28;20163;-40
2021/01/14 10:47:15;;;;;;;0.55;0.30;;;15.20;59.50;;;;;;4186715;28;20779;-40
2021/01/14 10:49:36;;;;;;;0.52;0.52;;;15.10;59.70;;;;;;4188831;28;20764;-41
2021/01/14 10:52:04;;;;;;;0.00;0.00;;;15.20;59.50;;;;;;4185817;28;20052;-40
2021/01/14 10:54:26;;;;;;;3.13;1.35;;;15.40;59.20;;;;;;4185917;28;20152;-48
2021/01/14 10:56:53;;;;;;;0.00;0.00;;;15.50;59.60;;;;;;4190043;28;20048;-40
2021/01/14 10:59:23;;;;;;;1.08;0.40;;;15.50;58.70;;;;;;4184736;28;20246;-40
2021/01/14 11:01:46;;;;;;;0.03;0.03;;;15.50;59.00;;;;;;4188465;28;20049;-39
2021/01/14 11:04:07;;;;;;;0.13;0.13;;;15.60;59.10;;;;;;4194094;28;20452;-40
2021/01/14 11:06:29;;;;;;;0.10;0.10;;;15.70;59.00;;;;;;4187088;28;20071;-40
2021/01/14 11:08:59;;;;;;;0.00;0.00;;;15.70;58.80;;;;;;4189243;28;20505;-40
2021/01/14 11:11:22;;;;;;;0.45;0.45;;;15.70;58.90;;;;;;4192229;28;20056;-40
2021/01/14 11:13:46;;;;;;;4.63;0.85;;;15.70;59.00;;;;;;4195044;28;20045;-40
2021/01/14 11:16:09;;;;;;;0.00;0.00;;;15.70;59.10;;;;;;4190549;28;20083;-40
2021/01/14 11:18:31;;;;;;;0.40;0.38;;;15.60;58.90;;;;;;4190902;28;20152;-40
2021/01/14 11:20:52;;;;;;;0.00;0.00;;;15.50;59.00;;;;;;4187816;28;20053;-40
2021/01/14 11:23:13;;;;;;;0.13;0.13;;;15.60;59.20;;;;;;4192853;28;20053;-39
2021/01/14 11:25:34;;;;;;;0.20;0.20;;;15.70;59.20;;;;;;4189799;28;20049;-40
2021/01/14 11:27:55;;;;;;;0.00;0.00;;;15.80;58.90;;;;;;4189201;28;20136;-41
2021/01/14 11:30:17;;;;;;;0.00;0.00;;;16.00;58.40;;;;;;4188889;28;20415;-41
2021/01/14 11:32:39;;;;;;;0.00;0.00;;;16.10;58.00;;;;;;4190623;28;20703;-40
2021/01/14 11:35:01;;;;;;;0.00;0.00;;;16.20;57.60;;;;;;4189419;28;20045;-40
2021/01/14 11:37:22;;;;;;;0.00;0.00;;;16.20;57.50;;;;;;4191758;28;20118;-40
2021/01/14 11:39:43;;;;;;;0.10;0.10;;;16.10;57.50;;;;;;4192431;28;20059;-40
2021/01/14 11:42:04;;;;;;;0.00;0.00;;;16.00;57.70;;;;;;4189646;28;20144;-40
2021/01/14 11:44:25;;;;;;;0.00;0.00;;;15.90;58.00;;;;;;4188281;28;20124;-41
2021/01/14 11:46:46;;;;;;;0.00;0.00;;;15.80;58.10;;;;;;4188128;28;20050;-40
2021/01/14 11:49:07;;;;;;;0.00;0.00;;;15.70;58.20;;;;;;4189955;28;20422;-40
2021/01/14 11:51:32;;;;;;;0.00;0.00;;;15.60;58.40;;;;;;4192285;28;20055;-40
2021/01/14 11:53:54;;;;;;;0.00;0.00;;;15.50;58.60;;;;;;4188216;28;20056;-40
2021/01/14 11:56:15;;;;;;;1.85;0.77;;;15.40;59.00;;;;;;4194204;28;20468;-41
2021/01/14 11:58:36;;;;;;;0.20;0.20;;;15.40;59.10;;;;;;4191444;28;20051;-40
2021/01/14 12:00:58;;;;;;;0.00;0.00;;;15.50;59.00;;;;;;4192452;28;20102;-41
2021/01/14 12:03:19;;;;;;;0.10;0.10;;;15.60;58.70;;;;;;4191931;28;20045;-40
2021/01/14 12:05:40;;;;;;;0.00;0.00;;;15.60;58.50;;;;;;4190211;28;20044;-41
2021/01/14 12:08:03;;;;;;;0.00;0.00;;;15.60;58.80;;;;;;4188140;28;20816;-41
2021/01/14 12:10:24;;;;;;;0.47;0.47;;;15.70;58.80;;;;;;4187716;28;20426;-41
2021/01/14 12:12:45;;;;;;;;;;;15.70;58.90;;;;;;4192841;28;20425;-41
2021/01/14 12:15:07;;;;;;;0.45;0.45;;;15.60;58.80;;;;;;4189112;28;19928;-40
2021/01/14 12:17:28;;;;;;;0.00;0.00;;;15.60;58.90;;;;;;4191749;28;20413;-42
2021/01/14 12:19:49;;;;;;;0.43;0.28;;;15.70;59.10;;;;;;4191051;28;20044;-41
2021/01/14 12:22:09;;;;;;;0.00;0.00;;;15.70;59.10;;;;;;4194787;28;20131;-40
2021/01/14 12:24:31;;;;;;;0.00;0.00;;;15.80;58.70;;;;;;4188279;28;20487;-40
2021/01/14 12:26:52;;;;;;;0.50;0.50;;;15.70;59.10;;;;;;4187855;28;20076;-40
2021/01/14 12:29:13;;;;;;;0.30;0.30;;;15.70;59.40;;;;;;4192068;28;20076;-41